createdAt,value
2018-12-19T00:00:31.575Z,76.50
2018-12-19T00:02:59.350Z,75.40
2018-12-19T00:05:27.060Z,77.10
2018-12-19T00:07:54.545Z,77.40
2018-12-19T00:10:22.251Z,78.00
2018-12-19T00:12:51.196Z,78.30
2018-12-19T00:15:19.041Z,80.50
2018-12-19T00:17:49.492Z,78.30
2018-12-19T00:20:15.936Z,78.00
2018-12-19T00:22:45.206Z,77.60
2018-12-19T00:27:51.974Z,77.70
2018-12-19T00:30:20.279Z,79.00
2018-12-19T00:32:50.192Z,79.60
2018-12-19T00:35:19.032Z,78.90
2018-12-19T00:37:47.035Z,80.50
2018-12-19T00:42:47.330Z,79.60
2018-12-19T00:45:15.063Z,79.90
2018-12-19T00:47:43.082Z,79.90
2018-12-19T00:50:10.221Z,78.90
2018-12-19T00:52:37.277Z,78.00
2018-12-19T00:55:05.358Z,76.80
2018-12-19T00:57:33.716Z,76.40
2018-12-19T01:00:01.995Z,75.80
2018-12-19T01:02:29.663Z,76.50
2018-12-19T01:04:58.466Z,76.10
2018-12-19T01:07:26.811Z,76.90
2018-12-19T01:09:55.055Z,77.80
2018-12-19T01:12:22.784Z,78.10
2018-12-19T01:14:49.918Z,76.70
2018-12-19T01:17:17.491Z,76.20
2018-12-19T01:19:44.795Z,75.70
2018-12-19T01:24:47.974Z,76.70
2018-12-19T01:27:15.954Z,76.70
2018-12-19T01:29:43.288Z,77.10
2018-12-19T01:32:10.297Z,76.40
2018-12-19T01:34:41.544Z,76.30
2018-12-19T01:37:12.047Z,76.30
2018-12-19T01:39:39.189Z,76.80
2018-12-19T01:42:07.539Z,76.20
2018-12-19T01:44:35.750Z,75.80
2018-12-19T01:47:02.898Z,75.80
2018-12-19T01:54:34.163Z,77.40
2018-12-19T01:57:01.952Z,78.10
2018-12-19T01:59:31.312Z,78.50
2018-12-19T02:01:57.781Z,77.00
2018-12-19T02:04:25.641Z,76.90
2018-12-19T02:06:52.482Z,77.30
2018-12-19T02:09:19.334Z,76.00
2018-12-19T02:11:47.397Z,77.40
2018-12-19T02:14:14.960Z,78.60
2018-12-19T02:16:42.486Z,77.20
2018-12-19T02:19:11.017Z,77.30
2018-12-19T02:21:38.360Z,76.70
2018-12-19T02:24:06.556Z,77.00
2018-12-19T02:26:35.660Z,76.00
2018-12-19T02:29:04.123Z,77.60
2018-12-19T02:31:32.082Z,78.10
2018-12-19T02:34:00.806Z,79.40
2018-12-19T02:36:27.710Z,81.00
2018-12-19T02:38:54.254Z,80.40
2018-12-19T02:41:20.725Z,80.30
2018-12-19T02:43:48.887Z,79.30
2018-12-19T02:46:16.355Z,77.50
2018-12-19T02:48:43.263Z,76.80
2018-12-19T02:51:10.683Z,76.10
2018-12-19T02:53:38.781Z,76.60
2018-12-19T02:56:06.376Z,76.20
2018-12-19T02:58:35.343Z,76.80
2018-12-19T03:01:01.895Z,78.00
2018-12-19T03:03:29.313Z,80.50
2018-12-19T03:05:56.829Z,81.50
2018-12-19T03:08:23.969Z,80.60
2018-12-19T03:10:52.030Z,78.50
2018-12-19T03:13:20.643Z,79.40
2018-12-19T03:15:48.627Z,79.50
2018-12-19T03:18:15.817Z,79.30
2018-12-19T03:20:43.403Z,77.60
2018-12-19T03:23:11.257Z,77.60
2018-12-19T03:25:38.098Z,77.60
2018-12-19T03:28:05.656Z,78.00
2018-12-19T03:30:34.447Z,76.30
2018-12-19T03:33:01.836Z,76.60
2018-12-19T03:35:29.485Z,77.90
2018-12-19T03:37:59.205Z,79.60
2018-12-19T03:40:27.385Z,79.00
2018-12-19T03:42:53.944Z,77.50
2018-12-19T03:45:25.743Z,77.30
2018-12-19T03:47:56.842Z,77.20
2018-12-19T03:50:24.048Z,79.90
2018-12-19T03:52:51.507Z,80.80
2018-12-19T03:55:19.387Z,79.50
2018-12-19T03:57:46.873Z,79.50
2018-12-19T04:00:13.574Z,79.30
2018-12-19T04:02:42.622Z,80.20
2018-12-19T04:05:11.214Z,80.60
2018-12-19T04:07:37.898Z,78.90
2018-12-19T04:10:06.404Z,79.10
2018-12-19T04:12:32.856Z,78.00
2018-12-19T04:15:00.896Z,78.80
2018-12-19T04:17:27.741Z,79.10
2018-12-19T04:19:56.342Z,77.80
2018-12-19T04:22:25.535Z,76.90
2018-12-19T04:24:53.216Z,75.90
2018-12-19T04:27:20.647Z,77.00
2018-12-19T04:29:48.447Z,76.80
2018-12-19T04:34:47.655Z,77.50
2018-12-19T04:37:14.927Z,75.90
2018-12-19T04:39:43.040Z,77.20
2018-12-19T04:42:11.690Z,79.30
2018-12-19T04:44:40.508Z,77.20
2018-12-19T04:47:08.007Z,77.70
2018-12-19T04:49:36.805Z,77.70
2018-12-19T04:52:04.682Z,76.20
2018-12-19T04:54:31.553Z,76.00
2018-12-19T04:56:59.102Z,75.50
2018-12-19T04:59:27.583Z,76.50
2018-12-19T05:01:55.890Z,78.60
2018-12-19T05:04:22.993Z,77.60
2018-12-19T05:06:49.485Z,77.00
2018-12-19T05:09:17.782Z,76.60
2018-12-19T05:11:46.661Z,76.00
2018-12-19T05:14:14.483Z,75.60
2018-12-19T05:16:43.060Z,74.60
2018-12-19T05:19:10.607Z,75.10
2018-12-19T05:21:37.950Z,75.00
2018-12-19T05:24:05.568Z,75.40
2018-12-19T05:26:33.859Z,74.60
2018-12-19T05:29:02.509Z,74.70
2018-12-19T05:31:29.973Z,75.20
2018-12-19T05:33:58.328Z,76.70
2018-12-19T05:36:26.584Z,75.20
2018-12-19T05:38:54.784Z,75.90
2018-12-19T05:46:31.636Z,75.50
2018-12-19T05:48:58.662Z,77.60
2018-12-19T05:51:26.433Z,76.90
2018-12-19T05:53:53.323Z,76.30
2018-12-19T05:56:21.931Z,75.40
2018-12-19T05:58:49.805Z,75.40
2018-12-19T06:01:17.423Z,75.60
2018-12-19T06:03:49.477Z,75.30
2018-12-19T06:06:17.499Z,74.60
2018-12-19T06:08:44.714Z,75.60
2018-12-19T06:11:11.153Z,76.80
2018-12-19T06:13:39.681Z,76.90
2018-12-19T06:16:06.103Z,76.00
2018-12-19T06:18:33.822Z,75.90
2018-12-19T06:21:02.269Z,77.20
2018-12-19T06:23:30.704Z,76.40
2018-12-19T06:26:06.234Z,76.60
2018-12-19T06:28:33.890Z,76.50
2018-12-19T06:33:35.837Z,77.00
2018-12-19T06:36:03.425Z,76.70
2018-12-19T06:38:30.446Z,76.20
2018-12-19T06:40:57.141Z,76.50
2018-12-19T06:43:29.651Z,76.60
2018-12-19T06:45:56.760Z,76.60
2018-12-19T06:48:25.646Z,76.90
2018-12-19T06:50:54.115Z,76.70
2018-12-19T06:53:21.246Z,76.20
2018-12-19T06:55:47.737Z,75.90
2018-12-19T06:58:14.504Z,75.70
2018-12-19T07:00:42.734Z,76.00
2018-12-19T07:03:11.436Z,75.80
2018-12-19T07:05:41.739Z,75.80
2018-12-19T07:08:10.229Z,75.80
2018-12-19T07:10:39.373Z,76.20
2018-12-19T07:13:07.597Z,76.10
2018-12-19T07:15:34.476Z,76.10
2018-12-19T07:18:02.479Z,76.00
2018-12-19T07:20:30.471Z,76.70
2018-12-19T07:22:59.434Z,77.20
2018-12-19T07:25:25.979Z,77.10
2018-12-19T07:27:54.135Z,76.50
2018-12-19T07:30:21.647Z,76.40
2018-12-19T07:32:49.002Z,75.70
2018-12-19T07:35:16.151Z,75.80
2018-12-19T07:37:44.961Z,75.90
2018-12-19T07:40:11.530Z,77.00
2018-12-19T07:42:39.196Z,78.40
2018-12-19T07:45:07.702Z,78.20
2018-12-19T07:47:35.203Z,76.50
2018-12-19T07:50:02.314Z,76.30
2018-12-19T07:52:31.306Z,75.80
2018-12-19T07:57:30.965Z,74.50
2018-12-19T07:59:57.558Z,74.50
2018-12-19T08:02:25.188Z,75.40
2018-12-19T08:04:54.627Z,75.20
2018-12-19T08:07:22.728Z,75.20
2018-12-19T08:09:49.805Z,76.50
2018-12-19T08:12:16.707Z,76.20
2018-12-19T08:14:44.605Z,76.20
2018-12-19T08:17:18.211Z,78.30
2018-12-19T08:19:45.921Z,77.30
2018-12-19T08:22:14.273Z,77.80
2018-12-19T08:27:13.518Z,77.50
2018-12-19T08:29:42.317Z,78.00
2018-12-19T08:32:09.244Z,77.00
2018-12-19T08:37:17.440Z,75.80
2018-12-19T08:39:44.484Z,76.80
2018-12-19T08:42:12.054Z,76.40
2018-12-19T08:44:45.330Z,76.60
2018-12-19T08:47:16.906Z,77.30
2018-12-19T08:49:44.591Z,76.10
2018-12-19T08:52:13.060Z,75.70
2018-12-19T08:54:41.208Z,75.40
2018-12-19T08:57:09.994Z,76.70
2018-12-19T08:59:38.799Z,79.30
2018-12-19T09:02:06.949Z,81.40
2018-12-19T09:04:38.940Z,81.80
2018-12-19T09:07:07.072Z,83.40
2018-12-19T09:09:34.214Z,82.20
2018-12-19T09:12:02.940Z,82.30
2018-12-19T09:14:30.866Z,83.70
2018-12-19T09:17:03.394Z,82.70
2018-12-19T09:19:30.852Z,79.90
2018-12-19T09:21:57.838Z,77.70
2018-12-19T09:24:24.940Z,76.80
2018-12-19T09:26:52.654Z,77.50
2018-12-19T09:29:19.689Z,77.00
2018-12-19T09:31:47.882Z,77.00
2018-12-19T09:34:16.109Z,79.20
2018-12-19T09:36:43.240Z,80.40
2018-12-19T09:39:11.512Z,79.80
2018-12-19T09:41:39.916Z,78.10
2018-12-19T09:44:08.675Z,78.30
2018-12-19T09:46:36.708Z,78.60
2018-12-19T09:51:37.130Z,78.40
2018-12-19T09:56:37.228Z,75.10
2018-12-19T09:59:04.523Z,75.20
2018-12-19T10:01:32.350Z,77.50
2018-12-19T10:04:00.443Z,77.60
2018-12-19T10:06:27.719Z,78.00
2018-12-19T10:08:55.145Z,77.60
2018-12-19T10:11:23.987Z,77.10
2018-12-19T10:13:51.748Z,76.90
2018-12-19T10:16:18.520Z,77.90
2018-12-19T10:18:46.039Z,77.70
2018-12-19T10:21:12.825Z,77.20
2018-12-19T10:23:40.480Z,76.30
2018-12-19T10:26:09.416Z,75.70
2018-12-19T10:28:41.106Z,77.30
2018-12-19T10:31:08.549Z,77.50
2018-12-19T10:33:36.493Z,79.70
2018-12-19T10:36:06.576Z,78.40
2018-12-19T10:38:33.800Z,77.30
2018-12-19T10:41:02.902Z,76.40
2018-12-19T10:43:30.610Z,78.40
2018-12-19T10:48:28.604Z,80.20
2018-12-19T10:50:56.080Z,80.20
2018-12-19T10:53:23.084Z,79.60
2018-12-19T10:55:52.253Z,77.50
2018-12-19T10:58:20.385Z,78.50
2018-12-19T11:00:48.444Z,78.30
2018-12-19T11:03:16.541Z,77.10
2018-12-19T11:05:46.657Z,79.10
2018-12-19T11:08:15.211Z,78.70
2018-12-19T11:10:41.785Z,78.80
2018-12-19T11:13:09.184Z,78.90
2018-12-19T11:15:37.401Z,79.40
2018-12-19T11:18:04.521Z,80.10
2018-12-19T11:20:32.507Z,79.50
2018-12-19T11:22:59.857Z,77.70
2018-12-19T11:25:28.021Z,77.50
2018-12-19T11:27:56.031Z,77.70
2018-12-19T11:30:22.776Z,75.70
2018-12-19T11:32:49.743Z,76.70
2018-12-19T11:35:17.009Z,76.00
2018-12-19T11:37:44.422Z,77.50
2018-12-19T11:40:12.515Z,80.40
2018-12-19T11:42:39.392Z,82.20
2018-12-19T11:45:07.977Z,81.30
2018-12-19T11:47:36.586Z,79.00
2018-12-19T11:50:03.088Z,78.60
2018-12-19T11:52:31.199Z,78.00
2018-12-19T11:54:58.960Z,79.40
2018-12-19T11:57:26.852Z,79.70
2018-12-19T11:59:54.260Z,78.50
2018-12-19T12:02:22.924Z,79.10
2018-12-19T12:04:51.583Z,78.80
2018-12-19T12:07:18.830Z,77.60
2018-12-19T12:09:47.015Z,77.40
2018-12-19T12:12:13.745Z,77.80
2018-12-19T12:14:41.580Z,78.00
2018-12-19T12:17:09.566Z,77.10
2018-12-19T12:19:37.179Z,77.90
2018-12-19T12:22:04.954Z,76.90
2018-12-19T12:24:32.385Z,77.00
2018-12-19T12:27:04.555Z,76.60
2018-12-19T12:29:32.198Z,77.30
2018-12-19T12:32:00.078Z,76.20
2018-12-19T12:34:27.268Z,74.70
2018-12-19T12:36:55.406Z,75.40
2018-12-19T12:39:23.617Z,76.60
2018-12-19T12:41:52.425Z,74.50
2018-12-19T12:44:20.272Z,76.60
2018-12-19T12:46:51.391Z,75.40
2018-12-19T12:51:50.356Z,76.90
2018-12-19T12:54:22.216Z,75.70
2018-12-19T12:56:51.040Z,75.40
2018-12-19T12:59:20.044Z,77.20
2018-12-19T13:01:47.100Z,76.40
2018-12-19T13:04:14.451Z,74.30
2018-12-19T13:06:46.070Z,74.80
2018-12-19T13:09:13.405Z,75.10
2018-12-19T13:11:40.504Z,76.30
2018-12-19T13:14:07.053Z,76.10
2018-12-19T13:16:35.463Z,75.60
2018-12-19T13:19:03.254Z,74.70
2018-12-19T13:21:31.569Z,73.70
2018-12-19T13:24:00.135Z,72.50
2018-12-19T13:26:26.877Z,72.40
2018-12-19T13:28:55.701Z,73.40
2018-12-19T13:31:24.371Z,73.10
2018-12-19T13:33:52.591Z,72.50
2018-12-19T13:36:20.951Z,71.40
2018-12-19T13:38:49.193Z,72.00
2018-12-19T13:41:16.662Z,73.40
2018-12-19T13:43:44.498Z,72.70
2018-12-19T13:48:45.278Z,72.70
2018-12-19T13:51:12.552Z,73.20
2018-12-19T13:53:39.997Z,72.80
2018-12-19T13:56:06.960Z,72.50
2018-12-19T13:58:34.702Z,72.20
2018-12-19T14:01:03.030Z,71.90
2018-12-19T14:03:32.054Z,73.10
2018-12-19T14:05:59.205Z,73.10
2018-12-19T14:08:27.391Z,72.90
2018-12-19T14:10:55.534Z,72.40
2018-12-19T14:13:22.524Z,71.10
2018-12-19T14:15:49.972Z,70.20
2018-12-19T14:18:18.255Z,70.70
2018-12-19T14:20:45.655Z,70.20
2018-12-19T14:23:12.406Z,70.20
2018-12-19T14:25:39.838Z,71.00
2018-12-19T14:30:39.026Z,70.20
2018-12-19T14:33:07.003Z,69.50
2018-12-19T14:35:35.268Z,69.70
2018-12-19T14:38:06.216Z,70.20
2018-12-19T14:40:34.960Z,69.40
2018-12-19T14:43:02.148Z,69.90
2018-12-19T14:45:30.182Z,71.10
2018-12-19T14:50:30.489Z,69.70
2018-12-19T14:52:58.640Z,69.80
2018-12-19T14:55:25.809Z,69.00
2018-12-19T14:57:53.073Z,68.70
2018-12-19T15:02:56.123Z,69.30
2018-12-19T15:05:24.260Z,69.10
2018-12-19T15:10:41.044Z,68.40
2018-12-19T15:13:09.519Z,69.00
2018-12-19T15:15:37.090Z,68.80
2018-12-19T15:20:37.641Z,68.60
2018-12-19T15:23:05.136Z,68.70
2018-12-19T15:25:33.151Z,69.00
2018-12-19T15:28:00.883Z,69.20
2018-12-19T15:30:29.537Z,69.20
2018-12-19T15:32:58.226Z,69.00
2018-12-19T15:35:26.128Z,68.80
2018-12-19T15:37:54.351Z,69.10
2018-12-19T15:40:22.499Z,69.30
2018-12-19T15:42:49.868Z,69.60
2018-12-19T15:45:19.106Z,69.90
2018-12-19T15:47:45.911Z,70.40
2018-12-19T15:50:13.132Z,69.80
2018-12-19T15:55:12.888Z,69.00
2018-12-19T15:57:41.627Z,68.80
2018-12-19T16:00:09.154Z,69.40
2018-12-19T16:02:37.219Z,70.50
2018-12-19T16:05:07.770Z,70.70
2018-12-19T16:07:36.019Z,70.80
2018-12-19T16:10:03.570Z,70.90
2018-12-19T16:12:39.088Z,70.10
2018-12-19T16:15:04.909Z,71.50
2018-12-19T16:17:33.511Z,72.00
2018-12-19T16:20:01.479Z,71.50
2018-12-19T16:22:29.229Z,70.70
2018-12-19T16:24:57.922Z,70.40
2018-12-19T16:27:25.391Z,70.30
2018-12-19T16:29:51.830Z,69.90
2018-12-19T16:32:19.383Z,69.50
2018-12-19T16:34:48.774Z,70.00
2018-12-19T16:37:15.877Z,71.00
2018-12-19T16:39:43.744Z,70.20
2018-12-19T16:42:10.677Z,70.30
2018-12-19T16:44:37.524Z,70.20
2018-12-19T16:47:04.970Z,69.50
2018-12-19T16:49:32.229Z,69.40
2018-12-19T16:51:59.617Z,69.90
2018-12-19T16:54:29.573Z,70.10
2018-12-19T16:56:58.823Z,70.60
2018-12-19T17:02:03.504Z,69.70
2018-12-19T17:04:30.022Z,70.80
2018-12-19T17:06:57.351Z,70.50
2018-12-19T17:12:02.464Z,69.00
2018-12-19T17:14:35.412Z,69.30
2018-12-19T17:17:05.382Z,69.70
2018-12-19T17:19:31.936Z,70.00
2018-12-19T17:22:00.027Z,70.30
2018-12-19T17:27:00.967Z,70.30
2018-12-19T17:32:21.509Z,70.30
2018-12-19T17:34:49.477Z,71.10
2018-12-19T17:37:17.554Z,72.20
2018-12-19T17:39:50.674Z,71.50
2018-12-19T17:42:18.129Z,71.30
2018-12-19T17:44:46.381Z,72.10
2018-12-19T17:47:14.131Z,71.20
2018-12-19T17:49:42.879Z,72.00
2018-12-19T17:52:10.662Z,71.40
2018-12-19T17:54:38.038Z,71.30
2018-12-19T17:57:05.340Z,70.90
2018-12-19T17:59:37.083Z,70.70
2018-12-19T18:02:04.343Z,70.30
2018-12-19T18:04:31.810Z,70.20
2018-12-19T18:06:58.277Z,69.70
2018-12-19T18:09:26.284Z,69.80
2018-12-19T18:11:54.517Z,70.50
2018-12-19T18:14:22.629Z,70.10
2018-12-19T18:16:51.116Z,70.20
2018-12-19T18:19:23.320Z,70.30
2018-12-19T18:21:48.707Z,71.50
2018-12-19T18:24:16.860Z,71.70
2018-12-19T18:26:43.972Z,72.10
2018-12-19T18:29:10.936Z,72.80
2018-12-19T18:31:39.269Z,71.80
2018-12-19T18:34:07.515Z,70.80
2018-12-19T18:36:34.382Z,71.10
2018-12-19T18:39:01.355Z,71.80
2018-12-19T18:41:30.319Z,72.50
2018-12-19T18:43:58.715Z,71.70
2018-12-19T18:46:27.880Z,72.00
2018-12-19T18:48:55.966Z,72.90
2018-12-19T18:51:23.821Z,73.30
2018-12-19T18:53:55.580Z,72.10
2018-12-19T18:56:25.001Z,71.70
2018-12-19T18:58:52.779Z,71.90
2018-12-19T19:01:20.064Z,70.40
2018-12-19T19:03:47.510Z,71.10
2018-12-19T19:06:14.354Z,70.50
2018-12-19T19:08:42.385Z,70.50
2018-12-19T19:11:09.715Z,69.40
2018-12-19T19:13:36.991Z,70.50
2018-12-19T19:16:05.999Z,70.40
2018-12-19T19:18:32.497Z,69.40
2018-12-19T19:21:00.004Z,69.90
2018-12-19T19:23:27.635Z,70.20
2018-12-19T19:25:55.367Z,69.20
2018-12-19T19:28:22.293Z,69.30
2018-12-19T19:30:49.791Z,69.50
2018-12-19T19:33:19.035Z,68.80
2018-12-19T19:35:47.713Z,68.70
2018-12-19T19:38:15.490Z,69.40
2018-12-19T19:40:42.603Z,68.70
2018-12-19T19:43:11.574Z,68.30
2018-12-19T19:45:39.771Z,67.60
2018-12-19T19:48:07.305Z,68.00
2018-12-19T19:50:38.007Z,68.10
2018-12-19T19:53:05.833Z,68.20
2018-12-19T19:58:05.955Z,69.00
2018-12-19T20:00:35.690Z,68.70
2018-12-19T20:03:03.445Z,68.50
2018-12-19T20:08:41.117Z,67.40
2018-12-19T20:11:09.858Z,67.40
2018-12-19T20:13:37.665Z,67.50
2018-12-19T20:16:06.920Z,68.20
2018-12-19T20:18:35.238Z,68.70
2018-12-19T20:21:03.663Z,68.40
2018-12-19T20:23:34.033Z,68.40
2018-12-19T20:26:04.597Z,67.90
2018-12-19T20:28:32.742Z,68.50
2018-12-19T20:31:02.491Z,68.30
2018-12-19T20:33:30.370Z,67.90
2018-12-19T20:38:31.014Z,69.50
2018-12-19T20:40:57.875Z,69.50
2018-12-19T20:43:25.736Z,70.60
2018-12-19T20:45:53.842Z,70.10
2018-12-19T20:48:23.051Z,69.00
2018-12-19T20:50:50.335Z,69.40
2018-12-19T20:53:18.225Z,68.90
2018-12-19T20:58:25.271Z,69.80
2018-12-19T21:00:52.810Z,69.90
2018-12-19T21:03:20.013Z,68.80
2018-12-19T21:08:20.660Z,68.80
2018-12-19T21:10:48.132Z,68.80
2018-12-19T21:13:16.694Z,69.30
2018-12-19T21:15:51.761Z,69.60
2018-12-19T21:18:18.540Z,69.50
2018-12-19T21:20:45.876Z,69.30
2018-12-19T21:23:12.985Z,69.50
2018-12-19T21:25:42.912Z,69.70
2018-12-19T21:28:13.065Z,70.90
2018-12-19T21:30:41.950Z,72.00
2018-12-19T21:35:41.900Z,70.90
2018-12-19T21:38:08.445Z,70.90
2018-12-19T21:40:37.306Z,70.40
2018-12-19T21:43:06.035Z,69.90
2018-12-19T21:45:34.764Z,69.80
2018-12-19T21:48:01.519Z,69.20
2018-12-19T21:53:01.456Z,69.80
2018-12-19T21:55:27.963Z,70.70
2018-12-19T21:57:55.048Z,70.00
2018-12-19T22:00:22.435Z,70.50
2018-12-19T22:02:49.704Z,70.00
2018-12-19T22:05:17.870Z,69.30
2018-12-19T22:07:46.531Z,69.00
2018-12-19T22:10:13.283Z,69.10
2018-12-19T22:12:41.339Z,68.60
2018-12-19T22:15:09.343Z,68.40
2018-12-19T22:17:36.660Z,69.30
2018-12-19T22:20:04.431Z,69.30
2018-12-19T22:22:32.434Z,67.90
2018-12-19T22:25:00.700Z,67.70
2018-12-19T22:27:27.321Z,68.60
2018-12-19T22:29:55.060Z,67.20
2018-12-19T22:32:23.754Z,67.30
2018-12-19T22:34:51.295Z,67.70
2018-12-19T22:37:18.480Z,67.50
2018-12-19T22:39:45.831Z,67.30
2018-12-19T22:42:12.926Z,67.20
2018-12-19T22:44:40.978Z,67.00
2018-12-19T22:49:45.232Z,66.50
2018-12-19T22:52:13.594Z,66.60
2018-12-19T22:54:41.448Z,66.50
2018-12-19T22:59:44.440Z,66.90
2018-12-19T23:02:14.095Z,65.90
2018-12-19T23:04:43.890Z,65.70
2018-12-19T23:09:52.440Z,66.90
2018-12-19T23:12:19.574Z,66.60
2018-12-19T23:14:46.820Z,67.10
2018-12-19T23:19:55.411Z,66.80
2018-12-19T23:22:23.923Z,66.70
2018-12-19T23:24:52.932Z,67.50
2018-12-19T23:27:25.379Z,67.50
2018-12-19T23:29:52.786Z,67.90
2018-12-19T23:32:21.975Z,67.90
2018-12-19T23:34:48.480Z,68.00
2018-12-19T23:37:16.697Z,67.80
2018-12-19T23:39:43.641Z,67.90
2018-12-19T23:42:12.823Z,67.80
2018-12-19T23:44:40.236Z,67.20
2018-12-19T23:49:40.543Z,66.90
2018-12-19T23:52:08.691Z,66.80
2018-12-19T23:54:37.376Z,66.30
